createdAt,value
2019-03-23T00:01:47.496Z,10.64
2019-03-23T00:04:15.991Z,10.82
2019-03-23T00:06:44.524Z,11.07
2019-03-23T00:09:13.043Z,11.30
2019-03-23T00:11:41.532Z,10.99
2019-03-23T00:14:10.056Z,10.69
2019-03-23T00:16:38.548Z,11.28
2019-03-23T00:19:07.091Z,11.65
2019-03-23T00:21:35.589Z,11.83
2019-03-23T00:24:04.164Z,11.28
2019-03-23T00:26:32.690Z,10.86
2019-03-23T00:29:01.183Z,9.87
2019-03-23T00:31:29.709Z,10.29
2019-03-23T00:33:58.206Z,10.65
2019-03-23T00:36:26.712Z,11.04
2019-03-23T00:38:55.232Z,11.37
2019-03-23T00:41:23.724Z,11.43
2019-03-23T00:43:52.245Z,11.43
2019-03-23T00:46:20.735Z,11.47
2019-03-23T00:48:49.266Z,11.62
2019-03-23T00:51:17.791Z,11.53
2019-03-23T00:53:46.280Z,11.61
2019-03-23T00:56:17.463Z,11.43
2019-03-23T00:58:45.998Z,11.38
2019-03-23T01:01:14.668Z,11.35
2019-03-23T01:03:43.196Z,11.25
2019-03-23T01:06:11.724Z,11.15
2019-03-23T01:08:40.223Z,11.04
2019-03-23T01:11:08.726Z,10.79
2019-03-23T01:13:37.298Z,10.44
2019-03-23T01:16:05.859Z,10.48
2019-03-23T01:18:34.553Z,10.42
2019-03-23T01:21:03.054Z,10.34
2019-03-23T01:23:31.564Z,10.30
2019-03-23T01:26:00.101Z,10.25
2019-03-23T01:28:28.660Z,10.21
2019-03-23T01:30:57.190Z,10.14
2019-03-23T01:33:25.680Z,10.07
2019-03-23T01:35:54.183Z,9.92
2019-03-23T01:38:22.760Z,9.64
2019-03-23T01:40:51.282Z,9.65
2019-03-23T01:43:19.782Z,9.58
2019-03-23T01:45:48.282Z,9.68
2019-03-23T01:48:16.795Z,9.68
2019-03-23T01:50:45.360Z,9.58
2019-03-23T01:53:13.854Z,9.25
2019-03-23T01:55:42.362Z,9.22
2019-03-23T01:58:10.925Z,9.29
2019-03-23T02:00:39.415Z,9.16
2019-03-23T02:03:07.930Z,9.26
2019-03-23T02:05:36.417Z,9.25
2019-03-23T02:08:05.010Z,9.26
2019-03-23T02:10:33.524Z,9.24
2019-03-23T02:13:01.997Z,9.17
2019-03-23T02:15:30.496Z,9.14
2019-03-23T02:17:58.979Z,9.14
2019-03-23T02:20:27.664Z,9.04
2019-03-23T02:22:56.151Z,9.01
2019-03-23T02:25:24.637Z,8.99
2019-03-23T02:27:53.130Z,8.92
2019-03-23T02:30:21.644Z,8.89
2019-03-23T02:32:50.166Z,8.90
2019-03-23T02:35:18.713Z,8.76
2019-03-23T02:37:47.199Z,8.75
2019-03-23T02:40:15.701Z,8.78
2019-03-23T02:42:44.217Z,8.66
2019-03-23T02:45:13.451Z,8.70
2019-03-23T02:47:41.977Z,8.50
2019-03-23T02:50:11.103Z,8.50
2019-03-23T02:52:39.649Z,8.46
2019-03-23T02:55:11.809Z,8.43
2019-03-23T02:57:40.348Z,8.12
2019-03-23T03:00:13.797Z,8.13
2019-03-23T03:02:42.315Z,8.38
2019-03-23T03:05:11.229Z,8.56
2019-03-23T03:07:43.250Z,8.54
2019-03-23T03:10:13.348Z,8.48
2019-03-23T03:12:41.844Z,8.39
2019-03-23T03:15:10.638Z,8.41
2019-03-23T03:17:39.157Z,8.41
2019-03-23T03:20:10.058Z,8.34
2019-03-23T03:22:38.542Z,8.32
2019-03-23T03:25:08.403Z,8.26
2019-03-23T03:27:36.964Z,8.26
2019-03-23T03:30:10.986Z,8.26
2019-03-23T03:32:39.599Z,8.32
2019-03-23T03:35:08.467Z,7.88
2019-03-23T03:37:36.951Z,7.69
2019-03-23T03:40:09.086Z,8.15
2019-03-23T03:42:37.680Z,8.38
2019-03-23T03:45:07.812Z,8.46
2019-03-23T03:47:36.330Z,8.46
2019-03-23T03:50:09.053Z,8.45
2019-03-23T03:52:37.656Z,8.39
2019-03-23T03:55:07.753Z,8.38
2019-03-23T03:57:36.369Z,8.29
2019-03-23T04:00:07.518Z,8.27
2019-03-23T04:02:36.034Z,8.25
2019-03-23T04:05:05.651Z,8.22
2019-03-23T04:07:34.150Z,7.97
2019-03-23T04:10:02.717Z,7.84
2019-03-23T04:12:31.245Z,7.28
2019-03-23T04:14:59.699Z,7.53
2019-03-23T04:17:28.191Z,8.08
2019-03-23T04:19:56.690Z,8.41
2019-03-23T04:22:25.191Z,8.08
2019-03-23T04:24:53.675Z,7.81
2019-03-23T04:27:22.193Z,8.01
2019-03-23T04:29:50.689Z,7.67
2019-03-23T04:32:19.187Z,7.53
2019-03-23T04:34:47.673Z,8.06
2019-03-23T04:37:16.187Z,8.38
2019-03-23T04:39:44.711Z,7.57
2019-03-23T04:42:13.211Z,7.39
2019-03-23T04:44:41.695Z,7.31
2019-03-23T04:47:10.216Z,7.26
2019-03-23T04:49:38.720Z,7.68
2019-03-23T04:52:07.232Z,7.75
2019-03-23T04:54:38.848Z,7.92
2019-03-23T04:57:06.741Z,8.31
2019-03-23T04:59:35.244Z,7.45
2019-03-23T05:02:04.101Z,7.68
2019-03-23T05:04:32.598Z,7.71
2019-03-23T05:07:01.081Z,8.07
2019-03-23T05:09:29.635Z,8.28
2019-03-23T05:11:58.119Z,8.09
2019-03-23T05:14:26.610Z,8.15
2019-03-23T05:16:55.112Z,7.92
2019-03-23T05:19:23.623Z,8.16
2019-03-23T05:21:52.151Z,8.02
2019-03-23T05:24:20.640Z,8.34
2019-03-23T05:26:49.221Z,8.03
2019-03-23T05:29:17.715Z,8.09
2019-03-23T05:31:46.197Z,8.25
2019-03-23T05:34:14.683Z,8.30
2019-03-23T05:36:43.184Z,8.25
2019-03-23T05:39:11.711Z,8.17
2019-03-23T05:41:40.199Z,8.39
2019-03-23T05:44:08.690Z,8.48
2019-03-23T05:46:37.207Z,8.13
2019-03-23T05:49:05.702Z,7.96
2019-03-23T05:51:34.210Z,8.21
2019-03-23T05:54:02.696Z,8.56
2019-03-23T05:56:31.227Z,8.50
2019-03-23T05:58:59.712Z,8.53
2019-03-23T06:01:28.198Z,8.62
2019-03-23T06:03:56.813Z,8.03
2019-03-23T06:06:25.299Z,7.71
2019-03-23T06:08:55.240Z,7.86
2019-03-23T06:11:25.004Z,8.08
2019-03-23T06:13:53.498Z,8.26
2019-03-23T06:16:22.047Z,8.58
2019-03-23T06:18:50.566Z,8.74
2019-03-23T06:21:19.081Z,8.67
2019-03-23T06:23:47.570Z,8.57
2019-03-23T06:26:16.094Z,8.26
2019-03-23T06:28:44.576Z,8.47
2019-03-23T06:31:13.098Z,8.75
2019-03-23T06:33:41.588Z,8.72
2019-03-23T06:36:10.122Z,8.87
2019-03-23T06:38:38.620Z,8.49
2019-03-23T06:41:07.133Z,8.58
2019-03-23T06:43:35.659Z,8.20
2019-03-23T06:46:04.212Z,8.35
2019-03-23T06:48:32.730Z,8.32
2019-03-23T06:51:03.203Z,8.33
2019-03-23T06:53:31.436Z,8.67
2019-03-23T06:55:59.951Z,8.42
2019-03-23T06:58:28.455Z,8.51
2019-03-23T07:00:56.955Z,8.68
2019-03-23T07:03:25.444Z,8.67
2019-03-23T07:05:53.958Z,8.93
2019-03-23T07:08:31.515Z,8.90
2019-03-23T07:10:52.663Z,8.95
2019-03-23T07:13:21.181Z,8.87
2019-03-23T07:15:49.665Z,8.88
2019-03-23T07:18:18.193Z,9.05
2019-03-23T07:20:46.684Z,8.55
2019-03-23T07:23:16.819Z,8.47
2019-03-23T07:25:45.299Z,8.60
2019-03-23T07:28:13.833Z,8.91
2019-03-23T07:30:42.401Z,9.13
2019-03-23T07:33:10.887Z,9.10
2019-03-23T07:35:39.389Z,9.50
2019-03-23T07:38:07.874Z,9.81
2019-03-23T07:40:36.468Z,9.25
2019-03-23T07:43:05.047Z,9.32
2019-03-23T07:45:33.537Z,9.80
2019-03-23T07:48:02.038Z,9.85
2019-03-23T07:50:30.541Z,10.29
2019-03-23T07:52:59.056Z,10.08
2019-03-23T07:55:27.543Z,10.14
2019-03-23T07:57:56.066Z,9.37
2019-03-23T08:00:24.566Z,9.44
2019-03-23T08:02:53.092Z,9.59
2019-03-23T08:05:21.663Z,9.84
2019-03-23T08:07:50.155Z,9.86
2019-03-23T08:10:32.179Z,9.53
2019-03-23T08:13:00.310Z,9.01
2019-03-23T08:15:29.356Z,8.57
2019-03-23T08:17:58.035Z,8.09
2019-03-23T08:20:26.691Z,8.67
2019-03-23T08:22:55.374Z,9.29
2019-03-23T08:25:23.903Z,9.77
2019-03-23T08:27:52.471Z,10.02
2019-03-23T08:30:20.972Z,10.08
2019-03-23T08:32:49.528Z,9.54
2019-03-23T08:35:18.388Z,9.84
2019-03-23T08:37:46.913Z,9.77
2019-03-23T08:40:15.399Z,10.22
2019-03-23T08:42:43.902Z,10.35
2019-03-23T08:45:12.674Z,10.71
2019-03-23T08:47:41.170Z,10.95
2019-03-23T08:50:09.944Z,11.16
2019-03-23T08:52:38.472Z,11.65
2019-03-23T08:55:07.274Z,11.60
2019-03-23T08:57:35.770Z,11.20
2019-03-23T09:00:07.934Z,11.58
2019-03-23T09:02:36.477Z,11.57
2019-03-23T09:05:06.233Z,12.32
2019-03-23T09:07:34.798Z,12.32
2019-03-23T09:10:05.159Z,12.77
2019-03-23T09:12:33.658Z,12.53
2019-03-23T09:15:02.192Z,12.96
2019-03-23T09:17:30.681Z,13.28
2019-03-23T09:19:59.225Z,13.72
2019-03-23T09:22:27.834Z,13.94
2019-03-23T09:24:57.446Z,14.25
2019-03-23T09:27:25.947Z,14.38
2019-03-23T09:29:56.460Z,13.89
2019-03-23T09:32:24.998Z,13.85
2019-03-23T09:34:53.536Z,14.43
2019-03-23T09:37:22.052Z,14.67
2019-03-23T09:39:50.578Z,15.01
2019-03-23T09:42:19.110Z,14.06
2019-03-23T09:44:47.704Z,14.35
2019-03-23T09:47:17.619Z,15.32
2019-03-23T09:49:46.146Z,15.89
2019-03-23T09:52:16.615Z,16.30
2019-03-23T09:54:45.418Z,16.61
2019-03-23T09:57:13.932Z,15.98
2019-03-23T09:59:42.487Z,16.66
2019-03-23T10:02:11.025Z,16.67
2019-03-23T10:04:39.519Z,16.70
2019-03-23T10:07:08.040Z,16.87
2019-03-23T10:09:38.146Z,16.70
2019-03-23T10:12:06.648Z,17.49
2019-03-23T10:14:35.206Z,17.53
2019-03-23T10:17:03.746Z,17.77
2019-03-23T10:19:32.266Z,18.20
2019-03-23T10:22:00.794Z,18.08
2019-03-23T10:24:29.387Z,18.20
2019-03-23T10:26:57.949Z,18.42
2019-03-23T10:29:26.547Z,18.44
2019-03-23T10:31:55.821Z,18.95
2019-03-23T10:34:24.400Z,18.40
2019-03-23T10:36:53.096Z,19.09
2019-03-23T10:39:21.761Z,19.69
2019-03-23T10:41:50.267Z,19.33
2019-03-23T10:44:18.865Z,19.38
2019-03-23T10:46:47.474Z,19.58
2019-03-23T10:49:16.027Z,19.64
2019-03-23T10:51:44.572Z,20.27
2019-03-23T10:54:13.154Z,20.65
2019-03-23T10:56:41.702Z,20.65
2019-03-23T10:59:10.211Z,20.62
2019-03-23T11:01:38.730Z,20.85
2019-03-23T11:04:07.333Z,21.00
2019-03-23T11:06:35.860Z,20.95
2019-03-23T11:09:06.030Z,20.70
2019-03-23T11:11:34.556Z,20.79
2019-03-23T11:14:03.045Z,20.34
2019-03-23T11:16:31.546Z,21.24
2019-03-23T11:19:00.040Z,21.39
2019-03-23T11:21:28.531Z,20.96
2019-03-23T11:23:57.048Z,21.37
2019-03-23T11:26:28.156Z,21.37
2019-03-23T11:28:56.891Z,21.63
2019-03-23T11:31:25.381Z,19.58
2019-03-23T11:33:53.890Z,20.34
2019-03-23T11:36:22.380Z,20.34
2019-03-23T11:38:50.903Z,21.50
2019-03-23T11:41:19.433Z,21.72
2019-03-23T11:43:47.927Z,21.56
2019-03-23T11:46:17.086Z,22.20
2019-03-23T11:48:45.649Z,22.20
2019-03-23T11:51:14.156Z,22.55
2019-03-23T11:53:42.640Z,22.55
2019-03-23T11:56:11.139Z,22.27
2019-03-23T11:58:39.668Z,22.31
2019-03-23T12:01:08.146Z,21.92
2019-03-23T12:03:36.674Z,22.77
2019-03-23T12:06:05.267Z,21.81
2019-03-23T12:08:33.816Z,18.22
2019-03-23T12:11:03.275Z,19.98
2019-03-23T12:13:31.814Z,21.77
2019-03-23T12:16:00.489Z,22.55
2019-03-23T12:18:28.982Z,23.13
2019-03-23T12:20:57.509Z,23.39
2019-03-23T12:23:26.009Z,23.69
2019-03-23T12:25:55.443Z,23.07
2019-03-23T12:28:23.943Z,23.45
2019-03-23T12:30:52.511Z,23.63
2019-03-23T12:33:21.558Z,23.57
2019-03-23T12:35:50.198Z,23.77
2019-03-23T12:38:18.781Z,23.13
2019-03-23T12:40:47.273Z,22.82
2019-03-23T12:43:16.559Z,22.53
2019-03-23T12:45:45.350Z,22.93
2019-03-23T12:48:13.933Z,23.00
2019-03-23T12:50:42.415Z,23.53
2019-03-23T12:53:10.930Z,23.08
2019-03-23T12:55:39.414Z,22.10
2019-03-23T12:58:07.930Z,21.89
2019-03-23T13:00:36.422Z,20.35
2019-03-23T13:03:04.920Z,21.52
2019-03-23T13:05:33.447Z,22.33
2019-03-23T13:08:01.935Z,22.33
2019-03-23T13:10:30.520Z,21.96
2019-03-23T13:12:59.046Z,22.36
2019-03-23T13:15:27.533Z,22.60
2019-03-23T13:17:57.404Z,22.64
2019-03-23T13:20:26.015Z,22.49
2019-03-23T13:22:55.564Z,22.49
2019-03-23T13:25:24.105Z,22.48
2019-03-23T13:27:52.594Z,22.27
2019-03-23T13:30:21.111Z,21.75
2019-03-23T13:32:52.483Z,21.53
2019-03-23T13:35:21.000Z,21.83
2019-03-23T13:37:49.487Z,22.11
2019-03-23T13:40:18.031Z,21.85
2019-03-23T13:42:46.529Z,21.87
2019-03-23T13:45:17.089Z,21.80
2019-03-23T13:47:45.631Z,21.37
2019-03-23T13:50:15.823Z,21.42
2019-03-23T13:52:44.432Z,21.38
2019-03-23T13:55:24.637Z,21.45
2019-03-23T13:57:53.156Z,21.35
2019-03-23T14:00:21.645Z,20.32
2019-03-23T14:02:51.951Z,20.56
2019-03-23T14:05:20.471Z,20.56
2019-03-23T14:07:48.984Z,21.13
2019-03-23T14:10:17.496Z,21.31
2019-03-23T14:12:45.984Z,21.20
2019-03-23T14:15:14.535Z,21.32
2019-03-23T14:17:43.053Z,21.54
2019-03-23T14:20:11.677Z,21.39
2019-03-23T14:22:40.184Z,21.20
2019-03-23T14:25:08.810Z,21.15
2019-03-23T14:27:37.346Z,21.30
2019-03-23T14:30:09.383Z,20.86
2019-03-23T14:32:37.971Z,20.76
2019-03-23T14:35:07.231Z,20.76
2019-03-23T14:37:35.884Z,20.76
2019-03-23T14:40:07.925Z,20.87
2019-03-23T14:42:37.199Z,20.50
2019-03-23T14:45:08.884Z,20.75
2019-03-23T14:47:37.405Z,20.75
2019-03-23T14:50:07.033Z,20.96
2019-03-23T14:52:35.725Z,20.96
2019-03-23T14:55:04.986Z,20.67
2019-03-23T14:57:33.512Z,20.67
2019-03-23T15:00:02.033Z,20.86
2019-03-23T15:02:30.530Z,20.76
2019-03-23T15:04:59.026Z,20.76
2019-03-23T15:07:27.610Z,20.41
2019-03-23T15:09:56.103Z,20.66
2019-03-23T15:12:24.618Z,20.32
2019-03-23T15:14:53.112Z,20.55
2019-03-23T15:17:21.622Z,20.55
2019-03-23T15:19:50.126Z,20.51
2019-03-23T15:22:18.616Z,19.02
2019-03-23T15:24:47.137Z,19.92
2019-03-23T15:27:15.617Z,20.20
2019-03-23T15:29:44.146Z,20.57
2019-03-23T15:32:12.627Z,20.23
2019-03-23T15:34:41.110Z,19.99
2019-03-23T15:37:09.617Z,20.19
2019-03-23T15:39:38.099Z,20.05
2019-03-23T15:42:06.633Z,20.32
2019-03-23T15:44:35.147Z,20.56
2019-03-23T15:47:03.646Z,20.56
2019-03-23T15:49:32.161Z,20.61
2019-03-23T15:52:00.645Z,20.43
2019-03-23T15:54:29.153Z,20.44
2019-03-23T15:56:57.750Z,20.34
2019-03-23T15:59:26.263Z,20.34
2019-03-23T16:01:54.781Z,20.38
2019-03-23T16:04:23.269Z,20.40
2019-03-23T16:06:51.769Z,20.23
2019-03-23T16:09:20.292Z,20.14
2019-03-23T16:11:48.781Z,20.12
2019-03-23T16:14:17.310Z,19.77
2019-03-23T16:16:45.807Z,19.89
2019-03-23T16:19:14.535Z,20.04
2019-03-23T16:21:43.029Z,19.79
2019-03-23T16:24:11.512Z,19.97
2019-03-23T16:26:40.036Z,19.97
2019-03-23T16:29:09.669Z,19.98
2019-03-23T16:31:38.424Z,19.80
2019-03-23T16:34:06.914Z,19.75
2019-03-23T16:36:35.437Z,19.72
2019-03-23T16:39:05.104Z,19.54
2019-03-23T16:41:33.907Z,19.50
2019-03-23T16:44:02.510Z,19.42
2019-03-23T16:46:30.992Z,19.23
2019-03-23T16:49:00.401Z,19.08
2019-03-23T16:51:28.999Z,18.87
2019-03-23T16:53:57.526Z,18.74
2019-03-23T16:56:26.016Z,18.60
2019-03-23T16:58:54.604Z,18.42
2019-03-23T17:01:23.132Z,18.34
2019-03-23T17:03:51.619Z,18.13
2019-03-23T17:06:20.127Z,18.02
2019-03-23T17:08:48.611Z,17.87
2019-03-23T17:11:17.130Z,17.77
2019-03-23T17:13:45.630Z,17.59
2019-03-23T17:16:14.160Z,17.53
2019-03-23T17:18:43.191Z,17.46
2019-03-23T17:21:11.685Z,17.42
2019-03-23T17:23:40.189Z,17.40
2019-03-23T17:26:08.713Z,17.35
2019-03-23T17:28:37.201Z,17.26
2019-03-23T17:31:05.708Z,17.12
2019-03-23T17:33:34.196Z,17.00
2019-03-23T17:36:02.797Z,16.89
2019-03-23T17:38:31.287Z,16.78
2019-03-23T17:40:59.811Z,16.81
2019-03-23T17:43:28.351Z,16.80
2019-03-23T17:45:56.878Z,16.77
2019-03-23T17:48:25.375Z,16.64
2019-03-23T17:50:53.881Z,16.60
2019-03-23T17:53:22.878Z,16.36
2019-03-23T17:55:51.370Z,16.22
2019-03-23T17:58:19.895Z,16.10
2019-03-23T18:00:48.481Z,15.97
2019-03-23T18:03:21.487Z,15.91
2019-03-23T18:05:50.095Z,15.86
2019-03-23T18:08:18.667Z,15.72
2019-03-23T18:10:47.210Z,15.69
2019-03-23T18:13:16.692Z,15.65
2019-03-23T18:15:45.422Z,15.53
2019-03-23T18:18:14.252Z,15.44
2019-03-23T18:20:42.767Z,15.42
2019-03-23T18:23:11.615Z,15.28
2019-03-23T18:25:40.139Z,15.05
2019-03-23T18:28:08.622Z,15.01
2019-03-23T18:30:41.629Z,14.86
2019-03-23T18:33:10.482Z,14.66
2019-03-23T18:35:38.982Z,14.68
2019-03-23T18:38:07.747Z,14.66
2019-03-23T18:40:36.646Z,14.67
2019-03-23T18:43:06.009Z,14.64
2019-03-23T18:45:36.421Z,14.60
2019-03-23T18:48:05.534Z,14.66
2019-03-23T18:50:35.601Z,14.58
2019-03-23T18:53:04.464Z,14.54
2019-03-23T18:55:32.968Z,14.51
2019-03-23T18:58:01.487Z,14.53
2019-03-23T19:00:37.302Z,14.50
2019-03-23T19:03:06.000Z,14.49
2019-03-23T19:05:35.227Z,14.37
2019-03-23T19:08:04.173Z,14.36
2019-03-23T19:10:32.821Z,14.39
2019-03-23T19:13:01.317Z,14.34
2019-03-23T19:15:29.820Z,14.27
2019-03-23T19:17:58.379Z,14.22
2019-03-23T19:20:26.902Z,14.06
2019-03-23T19:22:55.398Z,14.02
2019-03-23T19:25:24.012Z,13.85
2019-03-23T19:27:52.587Z,13.94
2019-03-23T19:30:21.546Z,13.97
2019-03-23T19:32:50.050Z,13.92
2019-03-23T19:35:18.574Z,13.77
2019-03-23T19:37:47.088Z,13.82
2019-03-23T19:40:16.702Z,13.80
2019-03-23T19:42:45.260Z,13.90
2019-03-23T19:45:15.083Z,14.03
2019-03-23T19:47:45.980Z,14.12
2019-03-23T19:50:16.392Z,14.15
2019-03-23T19:52:44.914Z,14.16
2019-03-23T19:55:13.481Z,13.90
2019-03-23T19:57:41.989Z,13.67
2019-03-23T20:00:12.617Z,13.45
2019-03-23T20:02:41.278Z,13.31
2019-03-23T20:05:10.013Z,13.47
2019-03-23T20:07:39.200Z,13.76
2019-03-23T20:10:10.246Z,13.99
2019-03-23T20:12:40.161Z,13.99
2019-03-23T20:15:09.312Z,13.93
2019-03-23T20:17:37.973Z,13.84
2019-03-23T20:20:08.220Z,13.93
2019-03-23T20:22:36.755Z,13.91
2019-03-23T20:25:09.662Z,13.72
2019-03-23T20:27:38.196Z,13.70
2019-03-23T20:30:09.736Z,13.50
2019-03-23T20:32:38.450Z,13.40
2019-03-23T20:35:08.002Z,13.26
2019-03-23T20:37:36.507Z,13.42
2019-03-23T20:40:07.325Z,13.46
2019-03-23T20:42:35.815Z,13.48
2019-03-23T20:45:07.165Z,13.48
2019-03-23T20:47:35.671Z,13.42
2019-03-23T20:50:05.149Z,13.38
2019-03-23T20:52:33.641Z,13.38
2019-03-23T20:55:02.498Z,13.28
2019-03-23T20:57:37.346Z,13.28
2019-03-23T21:00:01.208Z,13.26
2019-03-23T21:02:29.733Z,13.29
2019-03-23T21:04:58.238Z,13.26
2019-03-23T21:07:26.743Z,13.16
2019-03-23T21:09:56.915Z,12.95
2019-03-23T21:12:27.252Z,13.03
2019-03-23T21:14:55.620Z,13.05
2019-03-23T21:17:24.144Z,12.94
2019-03-23T21:19:52.675Z,12.79
2019-03-23T21:22:21.229Z,12.61
2019-03-23T21:24:49.753Z,12.51
2019-03-23T21:27:18.250Z,12.54
2019-03-23T21:29:46.775Z,12.58
2019-03-23T21:32:15.292Z,12.66
2019-03-23T21:34:43.777Z,12.49
2019-03-23T21:37:12.282Z,12.29
2019-03-23T21:39:40.771Z,12.42
2019-03-23T21:42:09.293Z,12.44
2019-03-23T21:44:37.781Z,12.49
2019-03-23T21:47:06.282Z,12.45
2019-03-23T21:49:34.776Z,12.17
2019-03-23T21:52:03.299Z,11.71
2019-03-23T21:54:31.884Z,11.88
2019-03-23T21:57:00.414Z,12.03
2019-03-23T21:59:28.918Z,12.08
2019-03-23T22:01:57.424Z,12.10
2019-03-23T22:04:25.943Z,12.09
2019-03-23T22:06:57.226Z,12.05
2019-03-23T22:09:25.750Z,12.09
2019-03-23T22:11:54.352Z,12.00
2019-03-23T22:14:22.871Z,11.93
2019-03-23T22:16:51.396Z,11.62
2019-03-23T22:19:19.905Z,11.69
2019-03-23T22:21:48.433Z,11.69
2019-03-23T22:24:16.930Z,11.59
2019-03-23T22:26:45.452Z,11.59
2019-03-23T22:29:13.982Z,11.66
2019-03-23T22:31:42.477Z,11.70
2019-03-23T22:34:11.001Z,11.79
2019-03-23T22:36:39.487Z,11.82
2019-03-23T22:39:08.149Z,11.90
2019-03-23T22:41:36.731Z,11.95
2019-03-23T22:44:05.372Z,11.91
2019-03-23T22:46:33.863Z,11.81
2019-03-23T22:49:02.391Z,12.04
2019-03-23T22:51:30.920Z,12.22
2019-03-23T22:53:59.415Z,12.36
2019-03-23T22:56:27.921Z,12.53
2019-03-23T22:58:56.418Z,12.55
2019-03-23T23:01:25.138Z,12.74
2019-03-23T23:03:53.649Z,13.10
2019-03-23T23:06:22.271Z,13.01
2019-03-23T23:08:50.760Z,12.78
2019-03-23T23:11:19.254Z,12.98
2019-03-23T23:13:47.740Z,13.12
2019-03-23T23:16:16.789Z,13.13
2019-03-23T23:18:45.286Z,13.26
2019-03-23T23:21:13.806Z,13.44
2019-03-23T23:23:42.331Z,12.99
2019-03-23T23:26:10.861Z,12.84
2019-03-23T23:28:40.927Z,12.47
2019-03-23T23:31:09.473Z,12.18
2019-03-23T23:33:39.408Z,11.87
2019-03-23T23:36:07.965Z,12.03
2019-03-23T23:38:36.475Z,11.69
2019-03-23T23:41:05.041Z,11.36
2019-03-23T23:43:33.534Z,11.42
2019-03-23T23:46:02.021Z,11.38
2019-03-23T23:48:30.527Z,11.27
2019-03-23T23:50:59.012Z,10.90
2019-03-23T23:53:27.535Z,10.93
2019-03-23T23:55:56.020Z,10.95
2019-03-23T23:58:24.522Z,10.95
